This is the latest recevied weather packets stored in our database for station/object WB9TLH-11. If no packets are shown the sender has not sent any weather packets the latest 1 day(s).
| Time | Temp. | Humidity | Pressure | Rain* | Wind** | Luminosity | Snow |
|---|---|---|---|---|---|---|---|
| 1836274737 | 25° C | 54% | 1016.7 hPa | 0 mm | 0 m/s | - | - |
| 1836274587 | 24.44° C | 56% | 1016.8 hPa | 0 mm | 0 m/s | - | - |
| 1836274437 | 25° C | 53% | 1016.7 hPa | 0 mm | 0 m/s | - | - |
| 1836274287 | 24.44° C | 55% | 1016.8 hPa | 0 mm | 0 m/s | - | - |
| 1836274137 | 25° C | 53% | 1016.7 hPa | 0 mm | 0 m/s | - | - |
| 1778060450 | 7.78° C | 91% | 1011.2 hPa | 0 mm | 0 m/s | - | - |
| 1778060150 | 7.78° C | 91% | 1011.2 hPa | 0 mm | 0 m/s | - | - |
| 1778059850 | 7.78° C | 91% | 1011.2 hPa | 0 mm | 0 m/s | - | - |
| 1778059550 | 7.78° C | 91% | 1011.1 hPa | 0 mm | 0 m/s | - | - |
| 1778059250 | 7.78° C | 91% | 1011.1 hPa | 0 mm | 0 m/s | - | - |
| 1778058950 | 7.78° C | 91% | 1011 hPa | 0 mm | 0 m/s | - | - |
| 1778058650 | 7.22° C | 91% | 1011 hPa | 0 mm | 0 m/s | - | - |
| 1778058350 | 7.22° C | 91% | 1010.6 hPa | 0 mm | 0 m/s | - | - |
| 1778058050 | 7.78° C | 91% | 1010.6 hPa | 0 mm | 0 m/s | - | - |
| 1778057750 | 7.78° C | 91% | 1010.3 hPa | 0 mm | 0 m/s | - | - |
| 1778057450 | 7.78° C | 91% | 1010.4 hPa | 0 mm | 0 m/s | - | - |
| 1778057150 | 7.78° C | 91% | 1010.6 hPa | 0 mm | 0 m/s | - | - |
| 1778056850 | 7.78° C | 91% | 1010.3 hPa | 0 mm | 0 m/s | - | - |
| 1778056550 | 7.78° C | 91% | 1010.3 hPa | 0 mm | 0 m/s | - | - |
| 1778056250 | 7.78° C | 91% | 1010.3 hPa | 0.25 mm | 0 m/s | - | - |
| 1778055950 | 7.22° C | 91% | 1010.4 hPa | 0.25 mm | 0 m/s | - | - |
| 1778055650 | 7.22° C | 91% | 1010.3 hPa | 0.25 mm | 0 m/s | - | - |
| 1778055350 | 7.22° C | 91% | 1010.4 hPa | 0.25 mm | 0 m/s | - | - |
| 1778055050 | 7.22° C | 91% | 1010.3 hPa | 0.25 mm | 0 m/s | - | - |
| 1778054750 | 7.22° C | 91% | 1010.2 hPa | 0.25 mm | 0 m/s | - | - |
* Rain latest hour (hover to see other rain measurements)
** Current wind speed in m/s (hover to see current wind gust speed)